MMPB/PBC METAR and TAF weather

Enter ICAO airport designator
Station Type Date Time Source
MMPB METAR 2018/12/15 19:43 UTC NOAA

MMPB 151943Z 13008KT 8SM SCT220 19/05 A3031 RMK 8/002 HZY


Station Type Date Time Source
MMPB Decoded METAR 2018/12/15 19:43 UTC NOAA

Puebla, Pue., Mexico (MMPB) 19-03N 098-10W
Dec 15, 2018 - 02:43 PM EST / 2018.12.15 1943 UTC
Wind: from the SE (130 degrees) at 9 MPH (8 KT):0
Visibility: 8 mile(s):0
Sky conditions: partly cloudy
Temperature: 66 F (19 C)
Dew Point: 41 F (5 C)
Relative Humidity: 39%
Pressure (altimeter): 30.31 in. Hg (1026 hPa)
ob: MMPB 151943Z 13008KT 8SM SCT220 19/05 A3031 RMK 8/002 HZY
cycle: 19

Station Type Date Time Source
MMPB TAF 2018/12/15 18:29 UTC NOAA

TAF MMPB 151621Z 1518/1618 03010KT P6SM BKN200
FM152100 14012KT P6SM SCT025
FM160300 04005KT P6SM SKC
TEMPO 1612/1615 3SM BR BKN010


Example: see airport list